createdAt,value
2018-07-28T00:00:50.759Z,0
2018-07-28T00:01:52.079Z,0
2018-07-28T00:02:53.407Z,0
2018-07-28T00:03:54.737Z,0
2018-07-28T00:04:56.052Z,0
2018-07-28T00:05:57.382Z,0
2018-07-28T00:06:58.692Z,0
2018-07-28T00:08:00.021Z,0
2018-07-28T00:09:01.341Z,0
2018-07-28T00:10:02.653Z,0
2018-07-28T00:11:03.974Z,0
2018-07-28T00:12:05.307Z,0
2018-07-28T00:13:06.620Z,0
2018-07-28T00:14:07.938Z,0
2018-07-28T00:15:09.258Z,0
2018-07-28T00:16:10.573Z,0
2018-07-28T00:17:11.888Z,0
2018-07-28T00:18:13.212Z,0
2018-07-28T00:19:14.520Z,0
2018-07-28T00:20:15.838Z,0
2018-07-28T00:21:17.162Z,0
2018-07-28T00:22:18.483Z,0
2018-07-28T00:23:19.792Z,0
2018-07-28T00:24:21.121Z,0
2018-07-28T00:25:22.444Z,0
2018-07-28T00:26:23.754Z,0
2018-07-28T00:27:25.079Z,0
2018-07-28T00:28:26.387Z,0
2018-07-28T00:29:27.704Z,0
2018-07-28T00:30:29.037Z,0
2018-07-28T00:31:30.346Z,0
2018-07-28T00:32:31.662Z,0
2018-07-28T00:33:32.983Z,0
2018-07-28T00:34:34.298Z,0
2018-07-28T00:35:35.609Z,0
2018-07-28T00:36:36.947Z,0
2018-07-28T00:37:38.276Z,0
2018-07-28T00:38:39.586Z,0
2018-07-28T00:39:40.902Z,0
2018-07-28T00:40:42.232Z,0
2018-07-28T00:41:43.547Z,0
2018-07-28T00:42:44.867Z,0
2018-07-28T00:43:46.179Z,0
2018-07-28T00:44:47.513Z,0
2018-07-28T00:45:48.822Z,0
2018-07-28T00:46:50.142Z,0
2018-07-28T00:47:51.462Z,0
2018-07-28T00:48:52.782Z,0
2018-07-28T00:49:54.097Z,0
2018-07-28T00:50:55.423Z,0
2018-07-28T00:51:56.729Z,0
2018-07-28T00:52:58.048Z,0
2018-07-28T00:53:59.364Z,0
2018-07-28T00:55:00.692Z,0
2018-07-28T00:56:02.008Z,0
2018-07-28T00:57:03.324Z,0
2018-07-28T00:58:04.637Z,0
2018-07-28T00:59:05.947Z,0
2018-07-28T01:00:07.298Z,0
2018-07-28T01:01:08.619Z,0
2018-07-28T01:02:09.929Z,0
2018-07-28T01:03:11.257Z,0
2018-07-28T01:04:12.588Z,0
2018-07-28T01:05:13.899Z,0
2018-07-28T01:06:15.224Z,0
2018-07-28T01:07:16.532Z,0
2018-07-28T01:08:17.848Z,0
2018-07-28T01:09:19.163Z,0
2018-07-28T01:10:20.492Z,0
2018-07-28T01:11:21.827Z,0
2018-07-28T01:12:23.140Z,0
2018-07-28T01:13:24.453Z,0
2018-07-28T01:14:25.769Z,0
2018-07-28T01:15:27.088Z,0
2018-07-28T01:16:28.400Z,0
2018-07-28T01:17:29.717Z,0
2018-07-28T01:18:31.040Z,0
2018-07-28T01:19:32.357Z,0
2018-07-28T01:20:33.653Z,0
2018-07-28T01:21:34.980Z,0
2018-07-28T01:22:36.307Z,0
2018-07-28T01:23:37.625Z,0
2018-07-28T01:24:38.952Z,0
2018-07-28T01:25:40.264Z,0
2018-07-28T01:26:41.595Z,0
2018-07-28T01:27:42.903Z,0
2018-07-28T01:28:44.228Z,0
2018-07-28T01:29:45.550Z,0
2018-07-28T01:30:46.854Z,0
2018-07-28T01:31:48.189Z,0
2018-07-28T01:32:49.502Z,0
2018-07-28T01:33:50.813Z,0
2018-07-28T01:34:52.128Z,0
2018-07-28T01:35:53.439Z,0
2018-07-28T01:36:54.770Z,0
2018-07-28T01:37:56.098Z,0
2018-07-28T01:38:57.406Z,0
2018-07-28T01:39:58.728Z,0
2018-07-28T01:41:00.053Z,0
2018-07-28T01:42:01.366Z,0
2018-07-28T01:43:02.691Z,0
2018-07-28T01:44:04.010Z,0
2018-07-28T01:45:05.353Z,0
2018-07-28T01:46:06.665Z,0
2018-07-28T01:47:07.979Z,0
2018-07-28T01:48:09.300Z,0
2018-07-28T01:49:10.611Z,0
2018-07-28T01:50:12.024Z,0
2018-07-28T01:51:13.339Z,0
2018-07-28T01:52:14.653Z,0
2018-07-28T01:53:15.968Z,0
2018-07-28T01:54:17.294Z,0
2018-07-28T01:55:18.600Z,0
2018-07-28T01:56:19.915Z,0
2018-07-28T01:57:21.224Z,0
2018-07-28T01:58:22.549Z,0
2018-07-28T01:59:23.863Z,0
2018-07-28T02:00:26.084Z,0
2018-07-28T02:01:27.411Z,0
2018-07-28T02:02:28.724Z,0
2018-07-28T02:03:30.074Z,0
2018-07-28T02:04:31.395Z,0
2018-07-28T02:05:32.704Z,0
2018-07-28T02:06:34.034Z,0
2018-07-28T02:07:35.354Z,0
2018-07-28T02:08:36.670Z,0
2018-07-28T02:09:37.987Z,0
2018-07-28T02:10:39.308Z,0
2018-07-28T02:11:40.636Z,0
2018-07-28T02:12:41.949Z,0
2018-07-28T02:13:43.266Z,0
2018-07-28T02:14:44.583Z,0
2018-07-28T02:15:45.914Z,0
2018-07-28T02:16:47.231Z,0
2018-07-28T02:17:48.559Z,0
2018-07-28T02:18:49.874Z,0
2018-07-28T02:19:51.194Z,0
2018-07-28T02:20:52.515Z,0
2018-07-28T02:21:53.830Z,0
2018-07-28T02:22:55.146Z,0
2018-07-28T02:23:56.482Z,0
2018-07-28T02:24:57.805Z,0
2018-07-28T02:25:59.118Z,0
2018-07-28T02:27:00.423Z,0
2018-07-28T02:28:01.746Z,0
2018-07-28T02:29:03.069Z,0
2018-07-28T02:30:04.399Z,0
2018-07-28T02:31:05.710Z,0
2018-07-28T02:32:07.026Z,0
2018-07-28T02:33:08.349Z,0
2018-07-28T02:34:09.671Z,0
2018-07-28T02:35:10.986Z,0
2018-07-28T02:36:12.300Z,0
2018-07-28T02:37:13.614Z,0
2018-07-28T02:38:14.925Z,0
2018-07-28T02:39:16.249Z,0
2018-07-28T02:40:18.505Z,0
2018-07-28T02:41:18.846Z,0
2018-07-28T02:42:20.171Z,0
2018-07-28T02:43:21.501Z,0
2018-07-28T02:44:22.806Z,0
2018-07-28T02:45:24.129Z,0
2018-07-28T02:46:25.451Z,0
2018-07-28T02:47:26.761Z,0
2018-07-28T02:48:28.074Z,0
2018-07-28T02:49:29.387Z,0
2018-07-28T02:50:30.714Z,0
2018-07-28T02:51:32.031Z,0
2018-07-28T02:52:33.339Z,0
2018-07-28T02:53:34.659Z,0
2018-07-28T02:54:35.974Z,0
2018-07-28T02:55:37.292Z,0
2018-07-28T02:56:38.612Z,0
2018-07-28T02:57:39.931Z,0
2018-07-28T02:58:41.259Z,0
2018-07-28T02:59:42.566Z,0
2018-07-28T03:00:43.882Z,0
2018-07-28T03:01:45.191Z,0
2018-07-28T03:02:46.511Z,0
2018-07-28T03:03:47.829Z,0
2018-07-28T03:04:49.150Z,0
2018-07-28T03:05:50.463Z,0
2018-07-28T03:06:51.780Z,0
2018-07-28T03:07:53.099Z,0
2018-07-28T03:08:54.412Z,0
2018-07-28T03:09:55.727Z,0
2018-07-28T03:10:57.046Z,0
2018-07-28T03:11:58.360Z,0
2018-07-28T03:12:59.681Z,0
2018-07-28T03:14:00.996Z,0
2018-07-28T03:15:02.307Z,0
2018-07-28T03:16:03.629Z,0
2018-07-28T03:17:04.954Z,0
2018-07-28T03:18:06.395Z,0
2018-07-28T03:19:07.712Z,0
2018-07-28T03:20:09.034Z,0
2018-07-28T03:21:10.347Z,0
2018-07-28T03:22:11.651Z,0
2018-07-28T03:23:12.970Z,0
2018-07-28T03:24:14.287Z,0
2018-07-28T03:25:15.612Z,0
2018-07-28T03:26:16.925Z,0
2018-07-28T03:27:18.242Z,0
2018-07-28T03:28:19.560Z,0
2018-07-28T03:29:20.875Z,0
2018-07-28T03:30:22.189Z,0
2018-07-28T03:31:23.509Z,0
2018-07-28T03:32:24.821Z,0
2018-07-28T03:33:26.139Z,0
2018-07-28T03:34:27.464Z,0
2018-07-28T03:35:28.784Z,0
2018-07-28T03:36:30.111Z,0
2018-07-28T03:37:31.420Z,0
2018-07-28T03:38:32.754Z,0
2018-07-28T03:39:34.070Z,5
2018-07-28T03:40:35.384Z,5
2018-07-28T03:41:36.709Z,5
2018-07-28T03:42:38.029Z,5
2018-07-28T03:43:39.365Z,5
2018-07-28T03:44:40.705Z,5
2018-07-28T03:45:42.022Z,5
2018-07-28T03:46:43.334Z,11
2018-07-28T03:47:44.664Z,11
2018-07-28T03:48:45.975Z,11
2018-07-28T03:49:47.298Z,11
2018-07-28T03:50:48.621Z,11
2018-07-28T03:51:49.957Z,16
2018-07-28T03:52:51.281Z,16
2018-07-28T03:53:52.607Z,16
2018-07-28T03:54:53.927Z,22
2018-07-28T03:55:55.240Z,22
2018-07-28T03:56:56.567Z,22
2018-07-28T03:57:57.880Z,22
2018-07-28T03:58:59.200Z,28
2018-07-28T04:00:00.526Z,28
2018-07-28T04:01:01.837Z,33
2018-07-28T04:02:03.156Z,33
2018-07-28T04:03:04.484Z,33
2018-07-28T04:04:05.840Z,39
2018-07-28T04:05:07.105Z,39
2018-07-28T04:06:08.426Z,45
2018-07-28T04:07:09.751Z,45
2018-07-28T04:08:11.070Z,50
2018-07-28T04:09:12.389Z,50
2018-07-28T04:10:13.712Z,56
2018-07-28T04:11:15.025Z,56
2018-07-28T04:12:16.345Z,61
2018-07-28T04:13:17.665Z,61
2018-07-28T04:14:19.017Z,67
2018-07-28T04:15:20.312Z,67
2018-07-28T04:16:21.630Z,73
2018-07-28T04:17:22.954Z,73
2018-07-28T04:18:24.264Z,78
2018-07-28T04:19:25.636Z,78
2018-07-28T04:20:26.944Z,78
2018-07-28T04:21:28.271Z,84
2018-07-28T04:22:29.585Z,84
2018-07-28T04:23:30.903Z,90
2018-07-28T04:24:32.239Z,95
2018-07-28T04:25:33.552Z,95
2018-07-28T04:26:34.872Z,101
2018-07-28T04:27:36.192Z,101
2018-07-28T04:28:37.553Z,106
2018-07-28T04:29:38.782Z,112
2018-07-28T04:30:40.095Z,112
2018-07-28T04:31:41.421Z,118
2018-07-28T04:32:42.750Z,123
2018-07-28T04:33:44.066Z,123
2018-07-28T04:34:45.393Z,129
2018-07-28T04:35:46.707Z,135
2018-07-28T04:36:48.031Z,135
2018-07-28T04:37:49.360Z,140
2018-07-28T04:38:50.682Z,146
2018-07-28T04:39:52.010Z,151
2018-07-28T04:40:53.327Z,151
2018-07-28T04:41:54.650Z,157
2018-07-28T04:42:55.972Z,163
2018-07-28T04:43:57.321Z,168
2018-07-28T04:44:58.624Z,174
2018-07-28T04:45:59.944Z,180
2018-07-28T04:47:01.267Z,185
2018-07-28T04:48:02.587Z,185
2018-07-28T04:49:03.907Z,191
2018-07-28T04:50:05.230Z,196
2018-07-28T04:51:06.560Z,196
2018-07-28T04:52:07.876Z,208
2018-07-28T04:53:09.200Z,208
2018-07-28T04:54:10.522Z,213
2018-07-28T04:55:11.835Z,219
2018-07-28T04:56:13.172Z,225
2018-07-28T04:57:14.504Z,236
2018-07-28T04:58:15.820Z,241
2018-07-28T04:59:17.150Z,247
2018-07-28T05:00:18.961Z,253
2018-07-28T05:01:20.272Z,258
2018-07-28T05:02:21.600Z,275
2018-07-28T05:03:22.912Z,275
2018-07-28T05:04:24.232Z,281
2018-07-28T05:05:25.556Z,292
2018-07-28T05:06:26.876Z,298
2018-07-28T05:07:28.287Z,303
2018-07-28T05:08:29.477Z,315
2018-07-28T05:09:30.792Z,320
2018-07-28T05:10:32.112Z,320
2018-07-28T05:11:33.428Z,326
2018-07-28T05:12:34.749Z,326
2018-07-28T05:13:36.078Z,331
2018-07-28T05:14:37.415Z,337
2018-07-28T05:15:38.729Z,343
2018-07-28T05:16:40.058Z,343
2018-07-28T05:17:41.365Z,354
2018-07-28T05:18:42.696Z,354
2018-07-28T05:19:44.020Z,365
2018-07-28T05:20:45.336Z,360
2018-07-28T05:21:46.650Z,365
2018-07-28T05:22:47.993Z,365
2018-07-28T05:23:49.364Z,371
2018-07-28T05:24:50.635Z,371
2018-07-28T05:25:51.960Z,376
2018-07-28T05:26:53.281Z,376
2018-07-28T05:27:54.605Z,382
2018-07-28T05:28:55.922Z,382
2018-07-28T05:29:57.251Z,382
2018-07-28T05:30:58.557Z,382
2018-07-28T05:31:59.880Z,382
2018-07-28T05:33:01.199Z,382
2018-07-28T05:34:02.523Z,382
2018-07-28T05:35:03.846Z,382
2018-07-28T05:36:05.175Z,382
2018-07-28T05:37:06.576Z,382
2018-07-28T05:38:07.847Z,376
2018-07-28T05:39:09.231Z,371
2018-07-28T05:40:10.517Z,371
2018-07-28T05:41:11.830Z,354
2018-07-28T05:42:13.160Z,343
2018-07-28T05:43:14.480Z,343
2018-07-28T05:44:15.801Z,337
2018-07-28T05:45:17.135Z,337
2018-07-28T05:46:18.456Z,343
2018-07-28T05:47:19.776Z,354
2018-07-28T05:48:21.100Z,365
2018-07-28T05:49:22.423Z,376
2018-07-28T05:50:23.746Z,388
2018-07-28T05:51:25.076Z,399
2018-07-28T05:52:26.398Z,405
2018-07-28T05:53:27.717Z,416
2018-07-28T05:54:29.047Z,433
2018-07-28T05:55:30.368Z,461
2018-07-28T05:56:31.694Z,466
2018-07-28T05:57:33.014Z,540
2018-07-28T05:58:34.326Z,585
2018-07-28T05:59:35.656Z,556
2018-07-28T06:00:36.984Z,523
2018-07-28T06:01:38.313Z,511
2018-07-28T06:02:39.660Z,528
2018-07-28T06:03:40.972Z,551
2018-07-28T06:04:42.304Z,551
2018-07-28T06:05:43.633Z,551
2018-07-28T06:06:44.957Z,585
2018-07-28T06:07:46.278Z,641
2018-07-28T06:08:47.599Z,703
2018-07-28T06:09:48.917Z,708
2018-07-28T06:10:50.257Z,781
2018-07-28T06:11:51.572Z,1006
2018-07-28T06:12:52.886Z,1046
2018-07-28T06:13:54.223Z,860
2018-07-28T06:14:55.541Z,804
2018-07-28T06:15:56.858Z,731
2018-07-28T06:16:58.227Z,855
2018-07-28T06:17:59.531Z,888
2018-07-28T06:19:00.857Z,1147
2018-07-28T06:20:02.183Z,1175
2018-07-28T06:21:03.512Z,810
2018-07-28T06:22:04.888Z,770
2018-07-28T06:23:06.156Z,1170
2018-07-28T06:24:07.482Z,1158
2018-07-28T06:25:08.807Z,1226
2018-07-28T06:26:10.142Z,1248
2018-07-28T06:27:11.491Z,1215
2018-07-28T06:28:12.829Z,1220
2018-07-28T06:29:14.167Z,1192
2018-07-28T06:30:15.571Z,1046
2018-07-28T06:31:16.918Z,714
2018-07-28T06:32:18.301Z,444
2018-07-28T06:33:19.637Z,382
2018-07-28T06:34:20.963Z,466
2018-07-28T06:35:22.301Z,393
2018-07-28T06:36:23.650Z,410
2018-07-28T06:37:24.957Z,427
2018-07-28T06:38:26.274Z,438
2018-07-28T06:39:27.627Z,444
2018-07-28T06:40:28.935Z,438
2018-07-28T06:41:30.273Z,433
2018-07-28T06:42:31.602Z,421
2018-07-28T06:43:32.931Z,421
2018-07-28T06:44:34.256Z,444
2018-07-28T06:45:35.578Z,528
2018-07-28T06:46:36.902Z,506
2018-07-28T06:47:38.234Z,523
2018-07-28T06:48:39.562Z,528
2018-07-28T06:49:40.882Z,534
2018-07-28T06:50:42.211Z,534
2018-07-28T06:51:43.548Z,540
2018-07-28T06:52:44.873Z,556
2018-07-28T06:53:46.243Z,568
2018-07-28T06:54:48.148Z,590
2018-07-28T06:55:49.471Z,624
2018-07-28T06:56:50.812Z,663
2018-07-28T06:57:52.141Z,708
2018-07-28T06:58:54.428Z,759
2018-07-28T06:59:55.778Z,810
2018-07-28T07:00:57.831Z,866
2018-07-28T07:01:59.175Z,933
2018-07-28T07:03:00.503Z,961
2018-07-28T07:04:01.828Z,967
2018-07-28T07:05:03.154Z,956
2018-07-28T07:06:04.492Z,945
2018-07-28T07:07:06.515Z,1518
2018-07-28T07:08:07.848Z,1023
2018-07-28T07:09:09.697Z,1023
2018-07-28T07:10:11.020Z,1080
2018-07-28T07:11:13.216Z,1316
2018-07-28T07:12:14.548Z,1890
2018-07-28T07:13:15.878Z,1822
2018-07-28T07:14:17.222Z,1788
2018-07-28T07:15:18.566Z,1816
2018-07-28T07:16:19.893Z,1569
2018-07-28T07:17:21.224Z,1153
2018-07-28T07:18:22.568Z,1580
2018-07-28T07:19:23.954Z,1732
2018-07-28T07:20:25.282Z,1175
2018-07-28T07:21:26.617Z,1597
2018-07-28T07:22:27.948Z,1040
2018-07-28T07:23:29.296Z,1530
2018-07-28T07:24:30.617Z,1057
2018-07-28T07:25:31.948Z,995
2018-07-28T07:26:33.286Z,1063
2018-07-28T07:27:34.616Z,871
2018-07-28T07:28:35.946Z,815
2018-07-28T07:29:37.289Z,787
2018-07-28T07:30:38.619Z,765
2018-07-28T07:31:39.955Z,736
2018-07-28T07:32:41.277Z,725
2018-07-28T07:33:42.609Z,697
2018-07-28T07:34:43.941Z,680
2018-07-28T07:35:45.267Z,675
2018-07-28T07:36:46.606Z,686
2018-07-28T07:37:47.932Z,658
2018-07-28T07:38:49.272Z,663
2018-07-28T07:39:50.602Z,736
2018-07-28T07:40:51.934Z,652
2018-07-28T07:41:53.259Z,585
2018-07-28T07:42:54.594Z,556
2018-07-28T07:43:55.931Z,534
2018-07-28T07:44:57.248Z,517
2018-07-28T07:45:58.585Z,511
2018-07-28T07:46:59.911Z,500
2018-07-28T07:48:01.242Z,478
2018-07-28T07:49:02.578Z,461
2018-07-28T07:50:03.892Z,461
2018-07-28T07:51:05.219Z,466
2018-07-28T07:52:06.567Z,478
2018-07-28T07:53:07.896Z,489
2018-07-28T07:54:09.211Z,495
2018-07-28T07:55:10.544Z,495
2018-07-28T07:56:11.878Z,495
2018-07-28T07:57:13.216Z,489
2018-07-28T07:58:14.548Z,472
2018-07-28T07:59:15.883Z,455
2018-07-28T08:00:17.213Z,433
2018-07-28T08:01:18.544Z,416
2018-07-28T08:02:19.872Z,393
2018-07-28T08:03:21.217Z,382
2018-07-28T08:04:22.539Z,360
2018-07-28T08:05:23.885Z,343
2018-07-28T08:06:25.217Z,331
2018-07-28T08:07:26.544Z,326
2018-07-28T08:08:27.872Z,326
2018-07-28T08:09:29.197Z,331
2018-07-28T08:10:30.529Z,343
2018-07-28T08:11:31.854Z,354
2018-07-28T08:12:33.186Z,365
2018-07-28T08:13:34.508Z,365
2018-07-28T08:14:35.843Z,371
2018-07-28T08:15:37.166Z,376
2018-07-28T08:16:38.498Z,376
2018-07-28T08:17:39.825Z,376
2018-07-28T08:18:41.158Z,376
2018-07-28T08:19:42.488Z,376
2018-07-28T08:20:43.809Z,376
2018-07-28T08:21:45.144Z,382
2018-07-28T08:22:46.465Z,382
2018-07-28T08:23:47.789Z,388
2018-07-28T08:24:49.116Z,393
2018-07-28T08:25:50.447Z,405
2018-07-28T08:26:51.840Z,421
2018-07-28T08:27:53.109Z,444
2018-07-28T08:28:55.054Z,478
2018-07-28T08:29:56.359Z,517
2018-07-28T08:30:57.694Z,556
2018-07-28T08:31:59.018Z,607
2018-07-28T08:33:00.349Z,652
2018-07-28T08:34:01.693Z,708
2018-07-28T08:35:03.015Z,736
2018-07-28T08:36:04.328Z,770
2018-07-28T08:37:05.665Z,798
2018-07-28T08:38:06.989Z,815
2018-07-28T08:39:08.328Z,843
2018-07-28T08:40:09.648Z,871
2018-07-28T08:41:10.984Z,916
2018-07-28T08:42:12.315Z,961
2018-07-28T08:43:13.639Z,995
2018-07-28T08:44:14.988Z,1051
2018-07-28T08:45:16.308Z,973
2018-07-28T08:46:18.238Z,883
2018-07-28T08:47:19.573Z,765
2018-07-28T08:48:20.908Z,680
2018-07-28T08:49:22.314Z,630
2018-07-28T08:50:23.529Z,601
2018-07-28T08:51:24.859Z,613
2018-07-28T08:52:26.181Z,641
2018-07-28T08:53:27.513Z,680
2018-07-28T08:54:28.842Z,731
2018-07-28T08:55:30.188Z,781
2018-07-28T08:56:31.523Z,810
2018-07-28T08:57:32.859Z,832
2018-07-28T08:58:34.208Z,855
2018-07-28T08:59:35.540Z,877
2018-07-28T09:00:36.880Z,916
2018-07-28T09:01:38.214Z,967
2018-07-28T09:02:39.553Z,1018
2018-07-28T09:03:40.889Z,1080
2018-07-28T09:04:42.217Z,1147
2018-07-28T09:05:43.545Z,1192
2018-07-28T09:06:44.880Z,1468
2018-07-28T09:07:46.223Z,3228
2018-07-28T09:08:47.555Z,3616
2018-07-28T09:09:48.893Z,2857
2018-07-28T09:10:50.235Z,3195
2018-07-28T09:11:51.570Z,1738
2018-07-28T09:12:52.903Z,1659
2018-07-28T09:13:54.238Z,1400
2018-07-28T09:14:55.555Z,1321
2018-07-28T09:15:56.901Z,1248
2018-07-28T09:16:58.233Z,1254
2018-07-28T09:17:59.623Z,1946
2018-07-28T09:19:00.858Z,2058
2018-07-28T09:20:02.198Z,1833
2018-07-28T09:21:03.531Z,1507
2018-07-28T09:22:04.871Z,2098
2018-07-28T09:23:06.199Z,2553
2018-07-28T09:24:07.540Z,1946
2018-07-28T09:25:08.864Z,3026
2018-07-28T09:26:10.206Z,3380
2018-07-28T09:27:11.532Z,1186
2018-07-28T09:28:12.875Z,1698
2018-07-28T09:29:14.208Z,2385
2018-07-28T09:30:15.558Z,3262
2018-07-28T09:31:16.894Z,3223
2018-07-28T09:32:18.238Z,3110
2018-07-28T09:33:19.566Z,3099
2018-07-28T09:34:20.913Z,3273
2018-07-28T09:35:22.256Z,3313
2018-07-28T09:36:23.600Z,3285
2018-07-28T09:37:24.939Z,3285
2018-07-28T09:38:26.289Z,3346
2018-07-28T09:39:27.620Z,3256
2018-07-28T09:40:28.965Z,3279
2018-07-28T09:41:30.298Z,3279
2018-07-28T09:42:31.635Z,3150
2018-07-28T09:43:32.978Z,3268
2018-07-28T09:44:34.311Z,3155
2018-07-28T09:45:35.658Z,3346
2018-07-28T09:46:37.005Z,2936
2018-07-28T09:47:38.353Z,3414
2018-07-28T09:48:39.685Z,3217
2018-07-28T09:49:41.023Z,3138
2018-07-28T09:50:42.382Z,1400
2018-07-28T09:51:43.704Z,1355
2018-07-28T09:52:45.041Z,2019
2018-07-28T09:53:46.389Z,1591
2018-07-28T09:54:47.744Z,1254
2018-07-28T09:55:49.078Z,1220
2018-07-28T09:56:50.430Z,1220
2018-07-28T09:57:51.770Z,1198
2018-07-28T09:58:53.098Z,1147
2018-07-28T09:59:54.448Z,1091
2018-07-28T10:00:55.787Z,995
2018-07-28T10:01:57.138Z,939
2018-07-28T10:02:58.478Z,922
2018-07-28T10:03:59.809Z,911
2018-07-28T10:05:01.134Z,933
2018-07-28T10:06:02.501Z,978
2018-07-28T10:07:03.852Z,1057
2018-07-28T10:08:05.194Z,1141
2018-07-28T10:09:06.530Z,1243
2018-07-28T10:10:07.855Z,1355
2018-07-28T10:11:09.203Z,1423
2018-07-28T10:12:10.535Z,1648
2018-07-28T10:13:11.868Z,2137
2018-07-28T10:14:13.215Z,1265
2018-07-28T10:15:14.549Z,1147
2018-07-28T10:16:15.902Z,1113
2018-07-28T10:17:17.188Z,1141
2018-07-28T10:18:18.529Z,1215
2018-07-28T10:19:19.860Z,1209
2018-07-28T10:20:21.190Z,1125
2018-07-28T10:21:22.523Z,1068
2018-07-28T10:22:23.860Z,1006
2018-07-28T10:23:25.194Z,961
2018-07-28T10:24:26.517Z,922
2018-07-28T10:25:27.854Z,911
2018-07-28T10:26:29.184Z,928
2018-07-28T10:27:30.518Z,950
2018-07-28T10:28:31.886Z,978
2018-07-28T10:29:33.215Z,1035
2018-07-28T10:30:34.550Z,1068
2018-07-28T10:31:35.884Z,1080
2018-07-28T10:32:37.219Z,1108
2018-07-28T10:33:38.549Z,1170
2018-07-28T10:34:39.880Z,1260
2018-07-28T10:35:41.234Z,1597
2018-07-28T10:36:42.604Z,1968
2018-07-28T10:37:43.869Z,1591
2018-07-28T10:38:45.185Z,1473
2018-07-28T10:39:46.530Z,1383
2018-07-28T10:40:48.474Z,1372
2018-07-28T10:41:49.814Z,1299
2018-07-28T10:42:51.165Z,1282
2018-07-28T10:43:52.509Z,1361
2018-07-28T10:44:53.844Z,1648
2018-07-28T10:45:55.194Z,2210
2018-07-28T10:46:56.538Z,2064
2018-07-28T10:47:57.860Z,2109
2018-07-28T10:48:59.201Z,2941
2018-07-28T10:50:00.544Z,3178
2018-07-28T10:51:01.886Z,3330
2018-07-28T10:52:03.209Z,2750
2018-07-28T10:53:04.550Z,3211
2018-07-28T10:54:05.883Z,3645
2018-07-28T10:55:07.218Z,1867
2018-07-28T10:56:08.558Z,1873
2018-07-28T10:57:09.893Z,1946
2018-07-28T10:58:11.235Z,2750
2018-07-28T10:59:12.579Z,2767
2018-07-28T11:00:13.984Z,3915
2018-07-28T11:01:15.244Z,4010
2018-07-28T11:02:16.583Z,3780
2018-07-28T11:03:17.925Z,3819
2018-07-28T11:04:19.260Z,3487
2018-07-28T11:05:20.609Z,3200
2018-07-28T11:06:21.940Z,2655
2018-07-28T11:07:23.284Z,2790
2018-07-28T11:08:24.632Z,3076
2018-07-28T11:09:26.031Z,3189
2018-07-28T11:10:27.366Z,3532
2018-07-28T11:11:28.710Z,3796
2018-07-28T11:12:30.054Z,3330
2018-07-28T11:13:31.395Z,2812
2018-07-28T11:14:32.731Z,2328
2018-07-28T11:15:34.074Z,2441
2018-07-28T11:16:35.415Z,2227
2018-07-28T11:17:36.761Z,1220
2018-07-28T11:18:38.126Z,1231
2018-07-28T11:19:39.446Z,1423
2018-07-28T11:20:40.790Z,1552
2018-07-28T11:21:42.127Z,2430
2018-07-28T11:22:43.481Z,2739
2018-07-28T11:23:44.814Z,2548
2018-07-28T11:24:46.161Z,3054
2018-07-28T11:25:47.525Z,3375
2018-07-28T11:26:48.840Z,3667
2018-07-28T11:27:50.171Z,3363
2018-07-28T11:28:51.515Z,2536
2018-07-28T11:29:52.854Z,3223
2018-07-28T11:30:54.196Z,3183
2018-07-28T11:31:55.547Z,1265
2018-07-28T11:32:56.872Z,3031
2018-07-28T11:33:58.226Z,3352
2018-07-28T11:34:59.556Z,3054
2018-07-28T11:36:00.886Z,3667
2018-07-28T11:37:02.229Z,3116
2018-07-28T11:38:03.572Z,2103
2018-07-28T11:39:04.911Z,3121
2018-07-28T11:40:06.259Z,2745
2018-07-28T11:41:07.596Z,3211
2018-07-28T11:42:08.950Z,3414
2018-07-28T11:43:10.360Z,3206
2018-07-28T11:44:11.701Z,3296
2018-07-28T11:45:13.031Z,3515
2018-07-28T11:46:14.369Z,3571
2018-07-28T11:47:15.730Z,3493
2018-07-28T11:48:17.070Z,3465
2018-07-28T11:49:18.958Z,3330
2018-07-28T11:50:20.304Z,3234
2018-07-28T11:51:21.714Z,2739
2018-07-28T11:52:23.886Z,3099
2018-07-28T11:53:25.241Z,3346
2018-07-28T11:54:27.371Z,3391
2018-07-28T11:55:28.714Z,3324
2018-07-28T11:56:30.641Z,3155
2018-07-28T11:57:31.986Z,3121
2018-07-28T11:58:34.227Z,2908
2018-07-28T11:59:34.640Z,2266
2018-07-28T12:00:36.004Z,3279
2018-07-28T12:01:38.298Z,3279
2018-07-28T12:02:38.692Z,3330
2018-07-28T12:03:40.036Z,3172
2018-07-28T12:04:42.236Z,3296
2018-07-28T12:05:43.171Z,3442
2018-07-28T12:06:44.524Z,1479
2018-07-28T12:07:46.710Z,3324
2018-07-28T12:08:48.055Z,1395
2018-07-28T12:09:50.066Z,3352
2018-07-28T12:10:51.424Z,3380
2018-07-28T12:11:53.735Z,3453
2018-07-28T12:12:55.118Z,3178
2018-07-28T12:13:57.290Z,2874
2018-07-28T12:14:58.627Z,2491
2018-07-28T12:15:59.977Z,2536
2018-07-28T12:17:02.036Z,1051
2018-07-28T12:18:03.389Z,2424
2018-07-28T12:19:05.266Z,2694
2018-07-28T12:20:06.639Z,3510
2018-07-28T12:21:08.846Z,2385
2018-07-28T12:22:10.188Z,3048
2018-07-28T12:23:12.225Z,2570
2018-07-28T12:24:12.842Z,3144
2018-07-28T12:25:14.191Z,3133
2018-07-28T12:26:15.535Z,3251
2018-07-28T12:27:16.877Z,3234
2018-07-28T12:28:18.221Z,3155
2018-07-28T12:29:19.564Z,3178
2018-07-28T12:30:20.915Z,3217
2018-07-28T12:31:22.271Z,3200
2018-07-28T12:32:23.609Z,3178
2018-07-28T12:33:24.960Z,3127
2018-07-28T12:34:26.305Z,2885
2018-07-28T12:35:27.646Z,2868
2018-07-28T12:36:28.992Z,2992
2018-07-28T12:37:30.339Z,2896
2018-07-28T12:38:31.754Z,3195
2018-07-28T12:39:33.021Z,3245
2018-07-28T12:40:34.380Z,3178
2018-07-28T12:41:35.709Z,3020
2018-07-28T12:42:37.051Z,2053
2018-07-28T12:43:38.391Z,1361
2018-07-28T12:44:39.730Z,1614
2018-07-28T12:45:41.077Z,2553
2018-07-28T12:46:42.416Z,3223
2018-07-28T12:47:43.765Z,2958
2018-07-28T12:48:45.102Z,2795
2018-07-28T12:49:46.509Z,2705
2018-07-28T12:50:47.843Z,2604
2018-07-28T12:51:49.188Z,2559
2018-07-28T12:52:50.536Z,2205
2018-07-28T12:53:51.881Z,1822
2018-07-28T12:54:53.220Z,1665
2018-07-28T12:55:54.562Z,1670
2018-07-28T12:56:55.906Z,1653
2018-07-28T12:57:57.241Z,1603
2018-07-28T12:58:58.581Z,1243
2018-07-28T12:59:59.935Z,1198
2018-07-28T13:01:01.270Z,894
2018-07-28T13:02:02.596Z,1091
2018-07-28T13:03:03.936Z,1321
2018-07-28T13:04:05.281Z,1513
2018-07-28T13:05:06.616Z,1811
2018-07-28T13:06:07.960Z,1721
2018-07-28T13:07:09.301Z,1766
2018-07-28T13:08:10.645Z,1620
2018-07-28T13:09:11.980Z,1676
2018-07-28T13:10:13.331Z,1732
2018-07-28T13:11:14.667Z,1732
2018-07-28T13:12:16.022Z,1755
2018-07-28T13:13:17.355Z,1743
2018-07-28T13:14:18.695Z,1850
2018-07-28T13:15:20.037Z,1861
2018-07-28T13:16:21.382Z,1276
2018-07-28T13:17:22.715Z,1923
2018-07-28T13:18:24.052Z,2025
2018-07-28T13:19:25.440Z,2058
2018-07-28T13:20:26.785Z,1991
2018-07-28T13:21:28.124Z,1186
2018-07-28T13:22:29.462Z,950
2018-07-28T13:23:30.806Z,2002
2018-07-28T13:24:32.138Z,2047
2018-07-28T13:25:33.486Z,2030
2018-07-28T13:26:34.822Z,1996
2018-07-28T13:27:36.155Z,950
2018-07-28T13:28:37.492Z,916
2018-07-28T13:29:38.866Z,1749
2018-07-28T13:30:40.197Z,2064
2018-07-28T13:31:41.537Z,2058
2018-07-28T13:32:42.875Z,1203
2018-07-28T13:33:44.212Z,1130
2018-07-28T13:34:45.571Z,1175
2018-07-28T13:35:46.907Z,2227
2018-07-28T13:36:48.252Z,2323
2018-07-28T13:37:49.582Z,1929
2018-07-28T13:38:50.928Z,1951
2018-07-28T13:39:52.291Z,2531
2018-07-28T13:40:53.626Z,2469
2018-07-28T13:41:54.965Z,2340
2018-07-28T13:42:56.461Z,2137
2018-07-28T13:43:57.802Z,1755
2018-07-28T13:44:59.152Z,1164
2018-07-28T13:46:00.492Z,1057
2018-07-28T13:47:01.830Z,1558
2018-07-28T13:48:03.166Z,1794
2018-07-28T13:49:04.556Z,1839
2018-07-28T13:50:05.895Z,1985
2018-07-28T13:51:07.232Z,1963
2018-07-28T13:52:08.575Z,1935
2018-07-28T13:53:09.901Z,905
2018-07-28T13:54:11.240Z,1963
2018-07-28T13:55:12.575Z,1980
2018-07-28T13:56:13.920Z,950
2018-07-28T13:57:15.264Z,871
2018-07-28T13:58:16.600Z,1777
2018-07-28T13:59:18.606Z,1878
2018-07-28T14:00:19.997Z,883
2018-07-28T14:01:21.287Z,866
2018-07-28T14:02:22.623Z,1800
2018-07-28T14:03:23.970Z,1850
2018-07-28T14:04:25.303Z,1850
2018-07-28T14:05:26.636Z,922
2018-07-28T14:06:27.977Z,984
2018-07-28T14:07:29.309Z,1850
2018-07-28T14:08:30.645Z,1108
2018-07-28T14:09:31.987Z,1631
2018-07-28T14:10:33.326Z,2030